sensor_id;sensor_type;location;lat;lon;timestamp;pressure;altitude;pressure_sealevel;temperature;humidity
72414;BME280;60995;52.154;4.498;2023-04-09T00:01:07;102596.16;;;8.98;82.94
72414;BME280;60995;52.154;4.498;2023-04-09T00:03:25;102596.00;;;9.01;82.85
72414;BME280;60995;52.154;4.498;2023-04-09T00:05:41;102593.38;;;9.00;83.34
72414;BME280;60995;52.154;4.498;2023-04-09T00:07:57;102591.88;;;8.94;83.02
72414;BME280;60995;52.154;4.498;2023-04-09T00:10:13;102590.41;;;9.04;82.63
72414;BME280;60995;52.154;4.498;2023-04-09T00:12:30;102593.91;;;8.90;82.89
72414;BME280;60995;52.154;4.498;2023-04-09T00:14:46;102598.81;;;8.82;83.43
72414;BME280;60995;52.154;4.498;2023-04-09T00:17:02;102596.22;;;8.81;83.31
72414;BME280;60995;52.154;4.498;2023-04-09T00:19:19;102596.94;;;8.84;83.53
72414;BME280;60995;52.154;4.498;2023-04-09T00:21:35;102593.28;;;8.85;83.40
72414;BME280;60995;52.154;4.498;2023-04-09T00:23:51;102595.06;;;8.85;82.96
72414;BME280;60995;52.154;4.498;2023-04-09T00:26:08;102598.59;;;8.87;83.70
72414;BME280;60995;52.154;4.498;2023-04-09T00:28:24;102593.47;;;8.65;83.61
72414;BME280;60995;52.154;4.498;2023-04-09T00:30:40;102596.41;;;8.60;84.20
72414;BME280;60995;52.154;4.498;2023-04-09T00:32:57;102598.69;;;8.68;84.13
72414;BME280;60995;52.154;4.498;2023-04-09T00:35:13;102590.03;;;8.61;84.31
72414;BME280;60995;52.154;4.498;2023-04-09T00:37:32;102589.81;;;8.66;84.64
72414;BME280;60995;52.154;4.498;2023-04-09T00:39:48;102585.16;;;8.68;84.19
72414;BME280;60995;52.154;4.498;2023-04-09T00:42:05;102583.34;;;8.68;84.10
72414;BME280;60995;52.154;4.498;2023-04-09T00:44:21;102583.81;;;8.59;84.04
72414;BME280;60995;52.154;4.498;2023-04-09T00:46:38;102587.00;;;8.67;84.15
72414;BME280;60995;52.154;4.498;2023-04-09T00:48:55;102585.25;;;8.66;84.13
72414;BME280;60995;52.154;4.498;2023-04-09T00:51:11;102580.28;;;8.74;83.51
72414;BME280;60995;52.154;4.498;2023-04-09T00:53:27;102580.88;;;8.64;84.38
72414;BME280;60995;52.154;4.498;2023-04-09T00:55:44;102574.66;;;8.61;84.42
72414;BME280;60995;52.154;4.498;2023-04-09T00:58:01;102578.38;;;8.76;83.69
72414;BME280;60995;52.154;4.498;2023-04-09T01:00:17;102572.34;;;8.71;83.14
72414;BME280;60995;52.154;4.498;2023-04-09T01:02:34;102573.50;;;8.83;83.17
72414;BME280;60995;52.154;4.498;2023-04-09T01:04:50;102578.69;;;8.88;83.03
72414;BME280;60995;52.154;4.498;2023-04-09T01:15:09;102571.19;;;8.93;82.45
72414;BME280;60995;52.154;4.498;2023-04-09T01:17:37;102571.44;;;8.88;82.26
72414;BME280;60995;52.154;4.498;2023-04-09T01:20:01;102579.03;;;8.82;82.68
72414;BME280;60995;52.154;4.498;2023-04-09T01:28:24;102584.56;;;8.78;82.76
72414;BME280;60995;52.154;4.498;2023-04-09T01:30:52;102581.94;;;9.10;81.87
72414;BME280;60995;52.154;4.498;2023-04-09T01:33:19;102583.06;;;8.90;82.27
72414;BME280;60995;52.154;4.498;2023-04-09T01:35:37;102580.47;;;9.05;82.54
72414;BME280;60995;52.154;4.498;2023-04-09T01:37:59;102580.47;;;9.05;82.01
72414;BME280;60995;52.154;4.498;2023-04-09T01:40:17;102581.00;;;9.12;82.12
72414;BME280;60995;52.154;4.498;2023-04-09T01:42:34;102575.06;;;9.21;81.87
72414;BME280;60995;52.154;4.498;2023-04-09T01:44:52;102574.16;;;9.04;81.52
72414;BME280;60995;52.154;4.498;2023-04-09T01:47:09;102577.19;;;8.98;81.82
72414;BME280;60995;52.154;4.498;2023-04-09T01:49:26;102573.44;;;9.01;82.32
72414;BME280;60995;52.154;4.498;2023-04-09T01:51:43;102576.78;;;9.06;81.88
72414;BME280;60995;52.154;4.498;2023-04-09T01:54:00;102578.19;;;8.97;81.82
72414;BME280;60995;52.154;4.498;2023-04-09T01:56:16;102578.84;;;8.85;82.03
72414;BME280;60995;52.154;4.498;2023-04-09T01:58:33;102576.75;;;8.90;82.24
72414;BME280;60995;52.154;4.498;2023-04-09T02:00:51;102570.41;;;8.73;82.95
72414;BME280;60995;52.154;4.498;2023-04-09T02:03:22;102570.63;;;8.86;82.56
72414;BME280;60995;52.154;4.498;2023-04-09T02:05:45;102565.41;;;8.99;82.65
72414;BME280;60995;52.154;4.498;2023-04-09T02:08:25;102574.50;;;8.98;82.38
72414;BME280;60995;52.154;4.498;2023-04-09T02:10:48;102572.28;;;8.89;82.15
72414;BME280;60995;52.154;4.498;2023-04-09T02:13:09;102568.44;;;8.77;82.57
72414;BME280;60995;52.154;4.498;2023-04-09T02:15:33;102564.69;;;8.80;83.36
72414;BME280;60995;52.154;4.498;2023-04-09T02:17:53;102566.34;;;8.82;83.43
72414;BME280;60995;52.154;4.498;2023-04-09T02:20:10;102559.28;;;8.80;83.44
72414;BME280;60995;52.154;4.498;2023-04-09T02:22:31;102561.97;;;8.80;82.70
72414;BME280;60995;52.154;4.498;2023-04-09T02:24:47;102551.75;;;8.69;83.63
72414;BME280;60995;52.154;4.498;2023-04-09T02:27:03;102557.69;;;8.75;83.45
72414;BME280;60995;52.154;4.498;2023-04-09T02:29:20;102551.31;;;8.76;83.33
72414;BME280;60995;52.154;4.498;2023-04-09T02:31:37;102548.09;;;8.70;83.41
72414;BME280;60995;52.154;4.498;2023-04-09T02:33:54;102540.72;;;8.72;83.33
72414;BME280;60995;52.154;4.498;2023-04-09T02:36:11;102541.44;;;8.75;83.83
72414;BME280;60995;52.154;4.498;2023-04-09T02:38:27;102541.78;;;8.69;83.33
72414;BME280;60995;52.154;4.498;2023-04-09T02:40:44;102541.03;;;8.83;83.35
72414;BME280;60995;52.154;4.498;2023-04-09T02:43:00;102541.28;;;8.78;83.41
72414;BME280;60995;52.154;4.498;2023-04-09T02:45:16;102538.63;;;8.61;84.16
72414;BME280;60995;52.154;4.498;2023-04-09T02:47:32;102530.44;;;8.78;84.01
72414;BME280;60995;52.154;4.498;2023-04-09T02:49:49;102541.78;;;8.69;83.92
72414;BME280;60995;52.154;4.498;2023-04-09T02:52:05;102535.38;;;8.88;83.22
72414;BME280;60995;52.154;4.498;2023-04-09T02:54:21;102531.75;;;8.71;83.32
72414;BME280;60995;52.154;4.498;2023-04-09T02:56:37;102521.16;;;8.67;83.99
72414;BME280;60995;52.154;4.498;2023-04-09T02:58:53;102537.25;;;8.70;83.98
72414;BME280;60995;52.154;4.498;2023-04-09T03:01:10;102519.63;;;8.78;83.99
72414;BME280;60995;52.154;4.498;2023-04-09T03:03:26;102523.47;;;8.74;83.92
72414;BME280;60995;52.154;4.498;2023-04-09T03:05:43;102518.22;;;8.71;83.81
72414;BME280;60995;52.154;4.498;2023-04-09T03:08:00;102526.97;;;8.76;83.59
72414;BME280;60995;52.154;4.498;2023-04-09T03:10:17;102518.03;;;8.74;83.81
72414;BME280;60995;52.154;4.498;2023-04-09T03:12:33;102522.94;;;8.84;83.53
72414;BME280;60995;52.154;4.498;2023-04-09T03:14:49;102525.47;;;8.71;83.50
72414;BME280;60995;52.154;4.498;2023-04-09T03:17:05;102516.47;;;8.70;83.53
72414;BME280;60995;52.154;4.498;2023-04-09T03:19:21;102526.00;;;8.77;83.33
72414;BME280;60995;52.154;4.498;2023-04-09T03:21:38;102521.03;;;8.86;83.57
72414;BME280;60995;52.154;4.498;2023-04-09T03:23:54;102519.75;;;8.93;83.43
72414;BME280;60995;52.154;4.498;2023-04-09T03:26:10;102523.13;;;8.81;83.21
72414;BME280;60995;52.154;4.498;2023-04-09T03:28:27;102517.72;;;8.81;83.53
72414;BME280;60995;52.154;4.498;2023-04-09T03:30:43;102510.22;;;8.86;83.63
72414;BME280;60995;52.154;4.498;2023-04-09T03:32:59;102509.03;;;9.07;83.08
72414;BME280;60995;52.154;4.498;2023-04-09T03:35:16;102514.59;;;9.04;82.86
72414;BME280;60995;52.154;4.498;2023-04-09T03:37:32;102511.13;;;9.02;82.48
72414;BME280;60995;52.154;4.498;2023-04-09T03:39:48;102508.13;;;9.07;82.91
72414;BME280;60995;52.154;4.498;2023-04-09T03:42:04;102499.75;;;9.12;82.71
72414;BME280;60995;52.154;4.498;2023-04-09T03:44:21;102501.75;;;9.08;83.22
72414;BME280;60995;52.154;4.498;2023-04-09T03:46:37;102495.31;;;9.10;82.77
72414;BME280;60995;52.154;4.498;2023-04-09T03:48:53;102502.91;;;9.20;83.00
72414;BME280;60995;52.154;4.498;2023-04-09T03:51:13;102494.69;;;9.37;82.69
72414;BME280;60995;52.154;4.498;2023-04-09T03:53:30;102493.00;;;9.51;82.01
72414;BME280;60995;52.154;4.498;2023-04-09T03:55:46;102501.13;;;9.51;81.58
72414;BME280;60995;52.154;4.498;2023-04-09T03:58:02;102494.13;;;9.63;81.82
72414;BME280;60995;52.154;4.498;2023-04-09T04:00:19;102492.31;;;9.77;81.47
72414;BME280;60995;52.154;4.498;2023-04-09T04:02:35;102493.91;;;9.66;80.87
72414;BME280;60995;52.154;4.498;2023-04-09T04:04:51;102494.81;;;9.66;81.32
72414;BME280;60995;52.154;4.498;2023-04-09T04:07:09;102497.94;;;9.74;80.93
72414;BME280;60995;52.154;4.498;2023-04-09T04:09:25;102496.97;;;9.75;80.95
72414;BME280;60995;52.154;4.498;2023-04-09T04:11:41;102503.16;;;9.77;80.17
72414;BME280;60995;52.154;4.498;2023-04-09T04:13:57;102495.16;;;9.60;81.11
72414;BME280;60995;52.154;4.498;2023-04-09T04:16:13;102494.91;;;9.95;80.40
72414;BME280;60995;52.154;4.498;2023-04-09T04:18:30;102493.72;;;9.85;79.68
72414;BME280;60995;52.154;4.498;2023-04-09T04:20:46;102496.44;;;9.99;79.56
72414;BME280;60995;52.154;4.498;2023-04-09T04:23:03;102489.03;;;10.17;79.20
72414;BME280;60995;52.154;4.498;2023-04-09T04:25:19;102494.69;;;10.29;78.29
72414;BME280;60995;52.154;4.498;2023-04-09T04:27:36;102489.31;;;10.43;77.98
72414;BME280;60995;52.154;4.498;2023-04-09T04:29:52;102494.78;;;10.41;77.20
72414;BME280;60995;52.154;4.498;2023-04-09T04:32:08;102485.22;;;10.50;77.16
72414;BME280;60995;52.154;4.498;2023-04-09T04:34:24;102492.28;;;10.38;77.14
72414;BME280;60995;52.154;4.498;2023-04-09T04:36:40;102483.09;;;10.55;76.37
72414;BME280;60995;52.154;4.498;2023-04-09T04:38:57;102490.25;;;10.56;76.02
72414;BME280;60995;52.154;4.498;2023-04-09T04:41:13;102496.97;;;10.51;76.22
72414;BME280;60995;52.154;4.498;2023-04-09T04:43:30;102493.56;;;10.47;76.00
72414;BME280;60995;52.154;4.498;2023-04-09T04:45:47;102488.88;;;10.49;76.02
72414;BME280;60995;52.154;4.498;2023-04-09T04:48:03;102491.59;;;10.64;75.27
72414;BME280;60995;52.154;4.498;2023-04-09T04:50:19;102500.22;;;10.41;75.85
72414;BME280;60995;52.154;4.498;2023-04-09T04:52:35;102499.63;;;10.36;76.18
72414;BME280;60995;52.154;4.498;2023-04-09T04:54:53;102495.69;;;10.56;76.26
72414;BME280;60995;52.154;4.498;2023-04-09T04:57:09;102496.66;;;10.70;75.23
72414;BME280;60995;52.154;4.498;2023-04-09T04:59:26;102495.41;;;10.75;75.11
72414;BME280;60995;52.154;4.498;2023-04-09T05:01:42;102491.91;;;10.59;75.00
72414;BME280;60995;52.154;4.498;2023-04-09T05:03:58;102503.94;;;10.84;74.94
72414;BME280;60995;52.154;4.498;2023-04-09T05:06:14;102508.78;;;10.79;74.85
72414;BME280;60995;52.154;4.498;2023-04-09T05:08:31;102510.63;;;10.78;74.97
72414;BME280;60995;52.154;4.498;2023-04-09T05:10:47;102504.78;;;10.84;74.60
72414;BME280;60995;52.154;4.498;2023-04-09T05:13:03;102508.56;;;10.82;74.38
72414;BME280;60995;52.154;4.498;2023-04-09T05:15:19;102509.25;;;10.85;74.54
72414;BME280;60995;52.154;4.498;2023-04-09T05:17:36;102509.53;;;10.81;74.90
72414;BME280;60995;52.154;4.498;2023-04-09T05:19:52;102502.19;;;10.68;75.08
72414;BME280;60995;52.154;4.498;2023-04-09T05:22:09;102502.38;;;10.80;74.91
72414;BME280;60995;52.154;4.498;2023-04-09T05:24:26;102505.19;;;10.78;74.57
72414;BME280;60995;52.154;4.498;2023-04-09T05:26:42;102508.97;;;10.90;73.86
72414;BME280;60995;52.154;4.498;2023-04-09T05:28:58;102507.41;;;11.00;73.62
72414;BME280;60995;52.154;4.498;2023-04-09T05:31:14;102502.56;;;10.76;73.90
72414;BME280;60995;52.154;4.498;2023-04-09T05:33:31;102494.81;;;10.85;73.60
72414;BME280;60995;52.154;4.498;2023-04-09T05:35:52;102505.94;;;10.95;73.90
72414;BME280;60995;52.154;4.498;2023-04-09T05:38:08;102505.84;;;10.82;74.45
72414;BME280;60995;52.154;4.498;2023-04-09T05:40:25;102503.34;;;10.93;74.22
72414;BME280;60995;52.154;4.498;2023-04-09T05:42:41;102499.06;;;10.89;74.54
72414;BME280;60995;52.154;4.498;2023-04-09T05:45:00;102503.25;;;10.80;74.58
72414;BME280;60995;52.154;4.498;2023-04-09T05:47:16;102501.19;;;10.98;73.92
72414;BME280;60995;52.154;4.498;2023-04-09T05:49:32;102505.66;;;10.99;73.55
72414;BME280;60995;52.154;4.498;2023-04-09T05:51:49;102505.81;;;11.11;73.25
72414;BME280;60995;52.154;4.498;2023-04-09T05:54:06;102509.69;;;11.06;73.23
72414;BME280;60995;52.154;4.498;2023-04-09T05:56:22;102520.19;;;11.13;73.51
72414;BME280;60995;52.154;4.498;2023-04-09T05:58:38;102518.09;;;10.89;74.08
72414;BME280;60995;52.154;4.498;2023-04-09T06:00:54;102505.41;;;11.17;73.45
72414;BME280;60995;52.154;4.498;2023-04-09T06:03:11;102514.13;;;11.22;72.22
72414;BME280;60995;52.154;4.498;2023-04-09T06:05:27;102513.38;;;11.20;73.07
72414;BME280;60995;52.154;4.498;2023-04-09T06:07:43;102511.44;;;11.07;73.08
72414;BME280;60995;52.154;4.498;2023-04-09T06:09:59;102508.97;;;10.90;74.00
72414;BME280;60995;52.154;4.498;2023-04-09T06:12:17;102506.63;;;10.98;74.03
72414;BME280;60995;52.154;4.498;2023-04-09T06:14:33;102502.66;;;11.31;72.76
72414;BME280;60995;52.154;4.498;2023-04-09T06:16:49;102508.41;;;11.27;72.06
72414;BME280;60995;52.154;4.498;2023-04-09T06:19:05;102510.16;;;11.13;72.79
72414;BME280;60995;52.154;4.498;2023-04-09T06:21:22;102518.81;;;11.05;72.79
72414;BME280;60995;52.154;4.498;2023-04-09T06:23:38;102515.88;;;11.23;73.29
72414;BME280;60995;52.154;4.498;2023-04-09T06:25:55;102517.44;;;11.27;72.44
72414;BME280;60995;52.154;4.498;2023-04-09T06:28:11;102512.84;;;11.42;71.56
72414;BME280;60995;52.154;4.498;2023-04-09T06:30:28;102516.34;;;11.30;72.26
72414;BME280;60995;52.154;4.498;2023-04-09T06:32:45;102520.91;;;10.87;73.19
72414;BME280;60995;52.154;4.498;2023-04-09T06:35:03;102518.28;;;11.00;72.89
72414;BME280;60995;52.154;4.498;2023-04-09T06:37:20;102525.13;;;11.06;73.16
72414;BME280;60995;52.154;4.498;2023-04-09T06:39:36;102519.34;;;11.25;71.74
72414;BME280;60995;52.154;4.498;2023-04-09T06:41:52;102518.41;;;11.26;72.18
72414;BME280;60995;52.154;4.498;2023-04-09T06:44:09;102521.38;;;11.36;71.93
72414;BME280;60995;52.154;4.498;2023-04-09T06:46:25;102519.75;;;11.61;71.02
72414;BME280;60995;52.154;4.498;2023-04-09T06:48:42;102515.91;;;11.78;69.09
72414;BME280;60995;52.154;4.498;2023-04-09T06:50:59;102523.84;;;11.53;70.69
72414;BME280;60995;52.154;4.498;2023-04-09T06:53:15;102528.81;;;11.74;70.37
72414;BME280;60995;52.154;4.498;2023-04-09T06:55:32;102522.94;;;11.67;70.22
72414;BME280;60995;52.154;4.498;2023-04-09T06:57:48;102524.41;;;11.86;70.05
72414;BME280;60995;52.154;4.498;2023-04-09T07:00:05;102513.06;;;11.79;70.33
72414;BME280;60995;52.154;4.498;2023-04-09T07:02:23;102517.84;;;11.75;70.16
72414;BME280;60995;52.154;4.498;2023-04-09T07:04:39;102517.94;;;11.47;71.07
72414;BME280;60995;52.154;4.498;2023-04-09T07:06:56;102515.28;;;11.59;70.49
72414;BME280;60995;52.154;4.498;2023-04-09T07:09:14;102516.09;;;11.74;70.27
72414;BME280;60995;52.154;4.498;2023-04-09T07:11:32;102520.63;;;11.61;70.10
72414;BME280;60995;52.154;4.498;2023-04-09T07:13:49;102507.94;;;11.20;71.75
72414;BME280;60995;52.154;4.498;2023-04-09T07:16:06;102514.88;;;11.38;71.72
72414;BME280;60995;52.154;4.498;2023-04-09T07:18:22;102509.66;;;11.21;71.57
72414;BME280;60995;52.154;4.498;2023-04-09T07:20:38;102511.75;;;11.17;71.84
72414;BME280;60995;52.154;4.498;2023-04-09T07:22:54;102520.44;;;11.64;70.87
72414;BME280;60995;52.154;4.498;2023-04-09T07:25:11;102518.81;;;11.74;70.30
72414;BME280;60995;52.154;4.498;2023-04-09T07:27:27;102502.72;;;11.71;69.90
72414;BME280;60995;52.154;4.498;2023-04-09T07:29:44;102508.63;;;11.51;71.61
72414;BME280;60995;52.154;4.498;2023-04-09T07:32:00;102515.81;;;11.52;71.08
72414;BME280;60995;52.154;4.498;2023-04-09T07:34:18;102506.63;;;11.40;71.77
72414;BME280;60995;52.154;4.498;2023-04-09T07:36:35;102513.75;;;11.28;72.62
72414;BME280;60995;52.154;4.498;2023-04-09T07:38:51;102510.69;;;11.33;72.52
72414;BME280;60995;52.154;4.498;2023-04-09T07:41:09;102516.09;;;11.74;71.84
72414;BME280;60995;52.154;4.498;2023-04-09T07:43:26;102524.97;;;11.64;71.29
72414;BME280;60995;52.154;4.498;2023-04-09T07:45:42;102518.81;;;11.74;71.61
72414;BME280;60995;52.154;4.498;2023-04-09T07:47:59;102517.16;;;11.99;70.80
72414;BME280;60995;52.154;4.498;2023-04-09T07:50:15;102524.06;;;12.44;69.43
72414;BME280;60995;52.154;4.498;2023-04-09T07:52:31;102520.50;;;12.56;68.06
72414;BME280;60995;52.154;4.498;2023-04-09T07:54:48;102513.66;;;12.50;67.56
72414;BME280;60995;52.154;4.498;2023-04-09T07:57:04;102521.22;;;12.06;68.83
72414;BME280;60995;52.154;4.498;2023-04-09T07:59:20;102519.25;;;11.96;69.35
72414;BME280;60995;52.154;4.498;2023-04-09T08:01:37;102513.69;;;11.97;70.12
72414;BME280;60995;52.154;4.498;2023-04-09T08:03:53;102510.88;;;11.99;69.33
72414;BME280;60995;52.154;4.498;2023-04-09T08:06:09;102517.09;;;12.01;68.95
72414;BME280;60995;52.154;4.498;2023-04-09T08:08:25;102520.78;;;12.00;69.06
72414;BME280;60995;52.154;4.498;2023-04-09T08:10:41;102519.38;;;11.80;70.23
72414;BME280;60995;52.154;4.498;2023-04-09T08:12:58;102513.47;;;11.73;70.78
72414;BME280;60995;52.154;4.498;2023-04-09T08:15:14;102517.44;;;11.82;69.79
72414;BME280;60995;52.154;4.498;2023-04-09T08:17:31;102513.75;;;11.83;68.97
72414;BME280;60995;52.154;4.498;2023-04-09T08:19:47;102519.88;;;11.99;68.60
72414;BME280;60995;52.154;4.498;2023-04-09T08:22:04;102513.59;;;11.71;68.58
72414;BME280;60995;52.154;4.498;2023-04-09T08:24:20;102517.94;;;11.74;68.72
72414;BME280;60995;52.154;4.498;2023-04-09T08:26:38;102518.72;;;12.03;67.91
72414;BME280;60995;52.154;4.498;2023-04-09T08:28:55;102519.47;;;12.05;67.57
72414;BME280;60995;52.154;4.498;2023-04-09T08:31:12;102525.78;;;12.06;67.76
72414;BME280;60995;52.154;4.498;2023-04-09T08:33:28;102526.25;;;11.85;68.04
72414;BME280;60995;52.154;4.498;2023-04-09T08:35:45;102518.66;;;11.90;68.18
72414;BME280;60995;52.154;4.498;2023-04-09T08:38:01;102523.38;;;12.01;67.17
72414;BME280;60995;52.154;4.498;2023-04-09T08:40:18;102522.00;;;12.08;67.51
72414;BME280;60995;52.154;4.498;2023-04-09T08:42:35;102529.03;;;11.98;67.63
72414;BME280;60995;52.154;4.498;2023-04-09T08:44:57;102521.63;;;12.00;67.89
72414;BME280;60995;52.154;4.498;2023-04-09T08:47:13;102531.88;;;12.10;67.17
72414;BME280;60995;52.154;4.498;2023-04-09T08:49:30;102528.09;;;11.85;67.85
72414;BME280;60995;52.154;4.498;2023-04-09T08:51:47;102532.63;;;11.99;67.44
72414;BME280;60995;52.154;4.498;2023-04-09T08:54:04;102529.41;;;11.92;68.26
72414;BME280;60995;52.154;4.498;2023-04-09T08:56:21;102522.47;;;11.88;68.00
72414;BME280;60995;52.154;4.498;2023-04-09T08:58:42;102526.56;;;11.81;67.94
72414;BME280;60995;52.154;4.498;2023-04-09T09:01:00;102526.22;;;11.72;68.06
72414;BME280;60995;52.154;4.498;2023-04-09T09:03:16;102525.25;;;12.01;67.63
72414;BME280;60995;52.154;4.498;2023-04-09T09:05:43;102524.25;;;11.74;67.78
72414;BME280;60995;52.154;4.498;2023-04-09T09:08:00;102522.91;;;11.95;67.34
72414;BME280;60995;52.154;4.498;2023-04-09T09:10:17;102523.66;;;11.29;69.14
72414;BME280;60995;52.154;4.498;2023-04-09T09:12:38;102523.22;;;11.63;68.75
72414;BME280;60995;52.154;4.498;2023-04-09T09:14:56;102525.03;;;11.77;67.61
72414;BME280;60995;52.154;4.498;2023-04-09T09:17:12;102533.25;;;11.62;68.28
72414;BME280;60995;52.154;4.498;2023-04-09T09:19:31;102514.47;;;11.45;68.85
72414;BME280;60995;52.154;4.498;2023-04-09T09:21:58;102526.63;;;11.66;68.61
72414;BME280;60995;52.154;4.498;2023-04-09T09:24:16;102521.63;;;11.46;69.14
72414;BME280;60995;52.154;4.498;2023-04-09T09:26:37;102523.44;;;11.87;67.74
72414;BME280;60995;52.154;4.498;2023-04-09T09:28:54;102511.28;;;11.65;68.36
72414;BME280;60995;52.154;4.498;2023-04-09T09:31:16;102516.13;;;11.87;67.83
72414;BME280;60995;52.154;4.498;2023-04-09T09:33:34;102514.16;;;11.77;66.78
72414;BME280;60995;52.154;4.498;2023-04-09T09:35:52;102507.94;;;12.15;66.89
72414;BME280;60995;52.154;4.498;2023-04-09T09:38:09;102507.06;;;12.01;66.84
72414;BME280;60995;52.154;4.498;2023-04-09T09:40:26;102510.09;;;12.10;66.75
72414;BME280;60995;52.154;4.498;2023-04-09T09:42:53;102507.97;;;12.40;65.35
72414;BME280;60995;52.154;4.498;2023-04-09T09:45:18;102508.28;;;12.62;64.21
72414;BME280;60995;52.154;4.498;2023-04-09T09:47:34;102504.81;;;12.72;65.37
72414;BME280;60995;52.154;4.498;2023-04-09T09:49:52;102511.66;;;12.65;64.96
72414;BME280;60995;52.154;4.498;2023-04-09T09:52:09;102512.09;;;12.59;63.46
72414;BME280;60995;52.154;4.498;2023-04-09T09:54:28;102499.88;;;12.00;65.05
72414;BME280;60995;52.154;4.498;2023-04-09T09:56:57;102493.28;;;11.50;66.77
72414;BME280;60995;52.154;4.498;2023-04-09T09:59:20;102488.97;;;12.00;66.71
72414;BME280;60995;52.154;4.498;2023-04-09T10:01:42;102490.19;;;11.96;66.13
72414;BME280;60995;52.154;4.498;2023-04-09T10:04:01;102493.59;;;12.13;65.20
72414;BME280;60995;52.154;4.498;2023-04-09T10:06:21;102492.06;;;12.21;64.69
72414;BME280;60995;52.154;4.498;2023-04-09T10:08:40;102493.81;;;12.61;64.70
72414;BME280;60995;52.154;4.498;2023-04-09T10:10:57;102481.38;;;12.05;65.34
72414;BME280;60995;52.154;4.498;2023-04-09T10:13:34;102477.03;;;12.16;64.69
72414;BME280;60995;52.154;4.498;2023-04-09T10:15:57;102476.69;;;12.59;62.72
72414;BME280;60995;52.154;4.498;2023-04-09T10:18:14;102476.56;;;12.73;62.35
72414;BME280;60995;52.154;4.498;2023-04-09T10:20:37;102477.63;;;12.84;63.02
72414;BME280;60995;52.154;4.498;2023-04-09T10:23:02;102482.47;;;12.80;61.46
72414;BME280;60995;52.154;4.498;2023-04-09T10:25:24;102474.84;;;12.72;61.97
72414;BME280;60995;52.154;4.498;2023-04-09T10:27:44;102475.38;;;12.78;61.47
72414;BME280;60995;52.154;4.498;2023-04-09T10:30:01;102477.63;;;12.84;61.19
72414;BME280;60995;52.154;4.498;2023-04-09T10:32:22;102468.22;;;13.01;61.36
72414;BME280;60995;52.154;4.498;2023-04-09T10:34:42;102473.31;;;12.68;62.25
72414;BME280;60995;52.154;4.498;2023-04-09T10:36:59;102455.09;;;12.82;62.20
72414;BME280;60995;52.154;4.498;2023-04-09T10:39:16;102461.81;;;13.26;61.53
72414;BME280;60995;52.154;4.498;2023-04-09T10:41:33;102461.59;;;13.29;60.39
72414;BME280;60995;52.154;4.498;2023-04-09T10:43:49;102448.53;;;14.17;58.85
72414;BME280;60995;52.154;4.498;2023-04-09T10:46:23;102452.59;;;13.16;60.37
72414;BME280;60995;52.154;4.498;2023-04-09T10:48:44;102454.53;;;13.51;59.92
72414;BME280;60995;52.154;4.498;2023-04-09T10:51:02;102444.78;;;14.06;58.50
72414;BME280;60995;52.154;4.498;2023-04-09T10:53:24;102438.88;;;14.35;57.57
72414;BME280;60995;52.154;4.498;2023-04-09T10:55:47;102442.50;;;15.25;56.36
72414;BME280;60995;52.154;4.498;2023-04-09T10:58:10;102437.25;;;14.89;55.88
72414;BME280;60995;52.154;4.498;2023-04-09T11:00:26;102438.25;;;14.43;56.21
72414;BME280;60995;52.154;4.498;2023-04-09T11:03:12;102436.13;;;14.81;54.98
72414;BME280;60995;52.154;4.498;2023-04-09T11:05:36;102428.50;;;15.51;53.62
72414;BME280;60995;52.154;4.498;2023-04-09T11:08:11;102425.38;;;15.77;52.49
72414;BME280;60995;52.154;4.498;2023-04-09T11:10:29;102426.56;;;15.30;54.24
72414;BME280;60995;52.154;4.498;2023-04-09T11:12:49;102415.94;;;15.69;53.11
72414;BME280;60995;52.154;4.498;2023-04-09T11:15:14;102418.63;;;15.60;53.03
72414;BME280;60995;52.154;4.498;2023-04-09T11:17:35;102410.91;;;16.28;51.39
72414;BME280;60995;52.154;4.498;2023-04-09T11:19:51;102406.38;;;15.96;52.01
72414;BME280;60995;52.154;4.498;2023-04-09T11:22:09;102416.84;;;16.74;49.74
72414;BME280;60995;52.154;4.498;2023-04-09T11:24:25;102403.81;;;17.07;50.05
72414;BME280;60995;52.154;4.498;2023-04-09T11:26:41;102402.53;;;16.70;49.66
72414;BME280;60995;52.154;4.498;2023-04-09T11:29:03;102394.63;;;16.36;49.73
72414;BME280;60995;52.154;4.498;2023-04-09T11:31:26;102398.34;;;18.23;47.55
72414;BME280;60995;52.154;4.498;2023-04-09T11:33:47;102399.78;;;17.60;46.92
72414;BME280;60995;52.154;4.498;2023-04-09T11:36:06;102389.38;;;18.59;45.60
72414;BME280;60995;52.154;4.498;2023-04-09T11:38:22;102387.19;;;18.34;46.42
72414;BME280;60995;52.154;4.498;2023-04-09T11:40:43;102390.03;;;18.43;46.38
72414;BME280;60995;52.154;4.498;2023-04-09T11:43:06;102392.53;;;18.64;45.09
72414;BME280;60995;52.154;4.498;2023-04-09T11:45:24;102386.81;;;19.57;42.82
72414;BME280;60995;52.154;4.498;2023-04-09T11:47:43;102384.88;;;18.30;46.16
72414;BME280;60995;52.154;4.498;2023-04-09T11:50:02;102386.88;;;18.38;46.17
72414;BME280;60995;52.154;4.498;2023-04-09T11:52:18;102387.00;;;18.74;45.58
72414;BME280;60995;52.154;4.498;2023-04-09T11:54:35;102386.50;;;17.26;48.43
72414;BME280;60995;52.154;4.498;2023-04-09T11:56:51;102385.34;;;17.48;49.06
72414;BME280;60995;52.154;4.498;2023-04-09T11:59:13;102383.00;;;17.63;47.55
72414;BME280;60995;52.154;4.498;2023-04-09T12:01:31;102377.56;;;17.14;48.71
72414;BME280;60995;52.154;4.498;2023-04-09T12:03:52;102384.03;;;17.23;49.27
72414;BME280;60995;52.154;4.498;2023-04-09T12:06:09;102373.47;;;17.67;47.86
72414;BME280;60995;52.154;4.498;2023-04-09T12:08:26;102378.94;;;17.77;47.78
72414;BME280;60995;52.154;4.498;2023-04-09T12:10:42;102384.19;;;17.51;47.90
72414;BME280;60995;52.154;4.498;2023-04-09T12:13:06;102382.94;;;16.85;50.85
72414;BME280;60995;52.154;4.498;2023-04-09T12:15:25;102376.13;;;18.16;46.77
72414;BME280;60995;52.154;4.498;2023-04-09T12:17:42;102381.19;;;18.11;46.89